Time;durP1;ratioP1;P1;durP2;ratioP2;P2;SDS_P1;SDS_P2;PMS_P1;PMS_P2;Temp;Humidity;BMP_temperature;BMP_pressure;BME280_temperature;BME280_humidity;BME280_pressure;Samples;Min_cycle;Max_cycle;Signal;HPM_P1;HPM_P2
2023/08/17 00:01:41;;;;;;;10.27;9.13;;;24.90;99.90;;;;;;5071666;28;20044;-72
2023/08/17 00:04:44;;;;;;;10.70;9.52;;;24.80;99.90;;;;;;5071188;28;20398;-72
2023/08/17 00:07:48;;;;;;;11.43;9.88;;;24.80;99.90;;;;;;5059159;28;20043;-71
2023/08/17 00:10:53;;;;;;;11.95;10.30;;;24.70;99.90;;;;;;5071591;28;20047;-71
2023/08/17 00:14:15;;;;;;;10.70;9.68;;;24.70;99.90;;;;;;5071359;28;20043;-72
2023/08/17 00:17:20;;;;;;;11.43;9.60;;;24.70;99.90;;;;;;5071326;28;20040;-72
2023/08/17 00:20:24;;;;;;;11.13;9.85;;;24.70;99.90;;;;;;5071503;28;20052;-72
2023/08/17 00:23:46;;;;;;;11.10;9.93;;;24.60;99.90;;;;;;5070978;28;20055;-72
2023/08/17 00:27:09;;;;;;;9.43;8.48;;;24.70;99.90;;;;;;5071349;28;20039;-72
2023/08/17 00:30:14;;;;;;;11.07;9.48;;;24.70;99.90;;;;;;5047558;28;20047;-72
2023/08/17 00:36:40;;;;;;;13.43;9.55;;;24.80;99.90;;;;;;5070993;28;20051;-72
2023/08/17 00:39:44;;;;;;;11.30;10.10;;;24.80;99.90;;;;;;5070905;28;20044;-72
2023/08/17 00:43:07;;;;;;;13.10;10.35;;;24.80;99.90;;;;;;5070519;28;20051;-72
2023/08/17 00:46:12;;;;;;;11.30;10.18;;;24.80;99.90;;;;;;5058412;28;20051;-72
2023/08/17 00:49:15;;;;;;;11.82;10.63;;;24.80;99.90;;;;;;5070833;28;20035;-72
2023/08/17 00:52:20;;;;;;;13.23;10.15;;;24.80;99.90;;;;;;5070193;28;20055;-72
2023/08/17 00:55:24;;;;;;;12.25;11.05;;;24.90;99.90;;;;;;5070536;28;20048;-72
2023/08/17 00:58:47;;;;;;;12.98;11.60;;;24.80;99.90;;;;;;5070506;28;20047;-72
2023/08/17 01:01:51;;;;;;;13.82;10.80;;;24.80;99.90;;;;;;5070211;28;20055;-72
2023/08/17 01:05:14;;;;;;;13.40;11.00;;;24.70;99.90;;;;;;5070583;28;20508;-72
2023/08/17 01:08:38;;;;;;;13.13;10.95;;;24.70;99.90;;;;;;5070551;28;20043;-72
2023/08/17 01:11:52;;;;;;;13.07;11.77;;;24.50;99.90;;;;;;5070338;28;20043;-72
2023/08/17 01:15:03;;;;;;;13.52;11.82;;;24.40;99.90;;;;;;5069714;28;20399;-72
2023/08/17 01:18:31;;;;;;;13.70;11.65;;;24.40;99.90;;;;;;5070166;28;20036;-72
2023/08/17 01:25:06;;;;;;;16.60;11.75;;;24.10;99.90;;;;;;5070515;28;20047;-72
2023/08/17 01:28:09;;;;;;;11.82;10.50;;;24.10;99.90;;;;;;5070594;28;20040;-72
2023/08/17 01:31:41;;;;;;;15.48;11.02;;;24.10;99.90;;;;;;5069539;28;20047;-72
2023/08/17 01:35:14;;;;;;;11.90;10.32;;;23.90;99.90;;;;;;5069975;28;20415;-71
2023/08/17 01:38:40;;;;;;;12.75;9.93;;;23.60;99.90;;;;;;5070284;28;20043;-72
2023/08/17 01:41:47;;;;;;;11.95;9.85;;;23.40;99.90;;;;;;5069594;28;20051;-72
2023/08/17 01:45:10;;;;;;;12.07;10.70;;;23.30;99.90;;;;;;5070307;28;20487;-72
2023/08/17 01:57:43;;;;;;;17.52;11.63;;;22.60;99.90;;;;;;5070689;28;20056;-71
2023/08/17 02:00:48;;;;;;;14.27;11.95;;;22.60;99.90;;;;;;5057367;28;20063;-72
2023/08/17 02:03:51;;;;;;;13.25;10.68;;;22.60;99.90;;;;;;5070013;28;20055;-72
2023/08/17 02:06:55;;;;;;;13.57;10.32;;;22.70;99.90;;;;;;5069760;28;20044;-72
2023/08/17 02:10:00;;;;;;;12.52;10.90;;;22.70;99.90;;;;;;5057531;28;20040;-72
2023/08/17 02:13:04;;;;;;;13.75;11.88;;;22.80;99.90;;;;;;5057107;28;20047;-72
2023/08/17 02:30:22;;;;;;;14.82;11.05;;;22.80;99.90;;;;;;5073532;28;20061;-72
2023/08/17 02:33:28;;;;;;;11.95;10.57;;;22.80;99.90;;;;;;5073407;28;20391;-71
2023/08/17 02:36:32;;;;;;;14.30;10.93;;;22.80;99.90;;;;;;5072968;28;20043;-72
2023/08/17 02:39:36;;;;;;;12.07;10.65;;;22.80;99.90;;;;;;5073163;28;20051;-72
2023/08/17 02:42:40;;;;;;;14.38;11.48;;;22.80;99.90;;;;;;5060220;28;20494;-72
2023/08/17 02:45:44;;;;;;;12.10;10.55;;;22.80;99.90;;;;;;5060622;28;20065;-71
2023/08/17 02:48:48;;;;;;;12.27;10.63;;;22.80;99.90;;;;;;5073095;28;20059;-71
2023/08/17 02:51:52;;;;;;;11.07;9.98;;;22.80;99.90;;;;;;5072994;28;20046;-71
2023/08/17 02:54:56;;;;;;;18.45;10.95;;;22.80;99.90;;;;;;5072978;28;20437;-72
2023/08/17 02:58:00;;;;;;;14.23;10.60;;;22.80;99.90;;;;;;5049534;28;20066;-72
2023/08/17 03:01:04;;;;;;;11.82;10.63;;;22.70;99.90;;;;;;5073308;28;20399;-72
2023/08/17 03:04:08;;;;;;;18.23;10.60;;;22.70;99.90;;;;;;5060646;28;20043;-71
2023/08/17 03:07:13;;;;;;;12.88;10.75;;;22.60;99.90;;;;;;5060656;28;20052;-72
2023/08/17 03:10:17;;;;;;;14.45;11.77;;;22.60;99.90;;;;;;5060525;28;20063;-71
2023/08/17 03:13:23;;;;;;;13.80;11.05;;;22.50;99.90;;;;;;5059973;28;20047;-71
2023/08/17 03:16:29;;;;;;;19.08;10.13;;;22.60;99.90;;;;;;5060186;28;20502;-71
2023/08/17 03:19:33;;;;;;;12.20;10.90;;;22.60;99.90;;;;;;5072693;28;20043;-71
2023/08/17 03:22:38;;;;;;;11.82;10.68;;;22.60;99.90;;;;;;5059679;28;20047;-71
2023/08/17 03:25:42;;;;;;;13.60;11.10;;;22.60;99.90;;;;;;5060420;28;20051;-72
2023/08/17 03:28:46;;;;;;;16.52;12.38;;;22.60;99.90;;;;;;5061522;28;20047;-72
2023/08/17 03:31:50;;;;;;;14.18;11.70;;;22.60;99.90;;;;;;5071929;28;20047;-72
2023/08/17 03:34:54;;;;;;;13.75;10.68;;;22.50;99.90;;;;;;5059865;28;20506;-71
2023/08/17 03:37:59;;;;;;;14.30;12.32;;;22.50;99.90;;;;;;5059662;28;20499;-71
2023/08/17 03:41:04;;;;;;;16.25;12.70;;;22.40;99.90;;;;;;5059409;28;20040;-71
2023/08/17 03:44:09;;;;;;;14.23;12.32;;;22.40;99.90;;;;;;5072252;28;20044;-71
2023/08/17 03:47:14;;;;;;;15.90;12.52;;;22.30;99.90;;;;;;5071871;28;20059;-71
2023/08/17 03:50:18;;;;;;;12.38;11.07;;;22.20;99.90;;;;;;5071939;28;20546;-71
2023/08/17 03:53:22;;;;;;;14.32;12.13;;;22.10;99.90;;;;;;5069900;28;20044;-72
2023/08/17 03:56:27;;;;;;;17.00;12.40;;;22.10;99.90;;;;;;5059397;28;20052;-71
2023/08/17 03:59:31;;;;;;;15.10;11.82;;;22.00;99.90;;;;;;5071807;28;20514;-71
2023/08/17 04:02:37;;;;;;;14.45;12.07;;;21.90;99.90;;;;;;5058843;28;20047;-72
2023/08/17 04:05:41;;;;;;;15.20;11.60;;;21.80;99.90;;;;;;5059375;28;20053;-71
2023/08/17 04:08:45;;;;;;;14.02;12.15;;;21.70;99.90;;;;;;5059130;28;20059;-71
2023/08/17 04:11:49;;;;;;;14.25;12.38;;;21.60;99.90;;;;;;5058580;28;20051;-71
2023/08/17 04:14:53;;;;;;;15.90;12.52;;;21.60;99.90;;;;;;5058967;28;20052;-71
2023/08/17 04:17:57;;;;;;;14.98;12.40;;;21.50;99.90;;;;;;5071645;28;20043;-71
2023/08/17 04:21:02;;;;;;;14.60;12.10;;;21.50;99.90;;;;;;5058743;28;20032;-71
2023/08/17 04:24:06;;;;;;;16.85;12.35;;;21.50;99.90;;;;;;5059053;28;20044;-71
2023/08/17 04:27:11;;;;;;;13.95;11.80;;;21.50;99.90;;;;;;5071495;28;20044;-72
2023/08/17 04:30:15;;;;;;;17.15;12.48;;;21.50;99.90;;;;;;5059213;28;20051;-72
2023/08/17 04:33:30;;;;;;;16.20;12.07;;;21.50;99.90;;;;;;5058775;28;20060;-71
2023/08/17 04:36:34;;;;;;;14.90;13.15;;;21.50;99.90;;;;;;5071196;28;20506;-72
2023/08/17 04:39:38;;;;;;;15.35;13.02;;;21.40;99.90;;;;;;5070988;28;20044;-72
2023/08/17 04:42:42;;;;;;;17.88;13.95;;;21.40;99.90;;;;;;5058358;28;20048;-72
2023/08/17 04:45:47;;;;;;;20.00;15.30;;;21.40;99.90;;;;;;5058442;28;20048;-72
2023/08/17 04:48:52;;;;;;;19.80;13.48;;;21.40;99.90;;;;;;5057956;28;20394;-71
2023/08/17 04:51:56;;;;;;;18.20;13.75;;;21.50;99.90;;;;;;5070426;28;20056;-72
2023/08/17 04:55:00;;;;;;;17.10;12.70;;;21.40;99.90;;;;;;5058352;28;20043;-71
2023/08/17 04:58:06;;;;;;;17.70;13.15;;;21.40;99.90;;;;;;5058367;28;20506;-72
2023/08/17 05:01:11;;;;;;;14.95;13.07;;;21.30;99.90;;;;;;5046610;28;20498;-71
2023/08/17 05:04:15;;;;;;;14.88;12.60;;;21.30;99.90;;;;;;5058104;28;20048;-71
2023/08/17 05:07:20;;;;;;;17.85;14.15;;;21.40;99.90;;;;;;5058368;28;20052;-71
2023/08/17 05:10:25;;;;;;;17.58;12.98;;;21.50;99.90;;;;;;5046758;28;20044;-72
2023/08/17 05:13:30;;;;;;;14.52;12.60;;;21.60;99.90;;;;;;5057722;28;20051;-72
2023/08/17 05:16:37;;;;;;;16.00;11.98;;;21.70;99.90;;;;;;5058082;28;20043;-72
2023/08/17 05:19:41;;;;;;;16.95;11.88;;;22.70;99.90;;;;;;5058279;28;20039;-71
2023/08/17 05:22:47;;;;;;;11.13;9.35;;;25.00;99.90;;;;;;5069014;28;20051;-72
2023/08/17 05:25:51;;;;;;;11.55;9.15;;;27.20;99.90;;;;;;5070283;28;20047;-72
2023/08/17 05:28:55;;;;;;;13.43;8.90;;;28.50;99.90;;;;;;5058231;28;20032;-72
2023/08/17 05:32:01;;;;;;;11.98;8.60;;;29.40;99.90;;;;;;5057148;28;20051;-72
2023/08/17 05:35:06;;;;;;;12.93;9.15;;;30.10;99.90;;;;;;5046151;28;20044;-72
2023/08/17 05:38:10;;;;;;;10.65;9.63;;;30.40;99.90;;;;;;5057561;28;20412;-72
2023/08/17 05:41:15;;;;;;;12.48;9.13;;;30.30;99.90;;;;;;5070102;28;20078;-72
2023/08/17 05:44:19;;;;;;;12.90;8.43;;;30.50;99.90;;;;;;5057845;28;20051;-72
2023/08/17 05:47:23;;;;;;;14.57;8.93;;;30.90;99.90;;;;;;5070890;28;20600;-72
2023/08/17 05:50:27;;;;;;;11.75;9.18;;;31.00;99.90;;;;;;5057834;28;20052;-72
2023/08/17 05:53:30;;;;;;;10.93;9.82;;;31.60;99.90;;;;;;5069576;28;20043;-72
2023/08/17 05:56:34;;;;;;;11.23;9.68;;;31.60;99.90;;;;;;5069807;28;20071;-72
2023/08/17 05:59:39;;;;;;;13.52;10.20;;;31.60;99.90;;;;;;5069974;28;20294;-72
2023/08/17 06:02:43;;;;;;;12.05;10.85;;;31.10;99.90;;;;;;5073520;28;20407;-72
2023/08/17 06:05:47;;;;;;;14.52;10.30;;;31.90;99.90;;;;;;5092750;28;20036;-72
2023/08/17 06:08:51;;;;;;;12.15;8.60;;;32.00;99.90;;;;;;5094377;28;20430;-72
2023/08/17 06:11:55;;;;;;;14.15;8.95;;;32.70;99.90;;;;;;5093455;28;20489;-72
2023/08/17 06:14:59;;;;;;;10.40;9.40;;;32.90;99.90;;;;;;5094278;28;20406;-73
2023/08/17 06:18:04;;;;;;;13.45;9.13;;;32.70;99.90;;;;;;5089177;28;20047;-73
2023/08/17 06:21:08;;;;;;;9.32;8.02;;;32.60;99.90;;;;;;5083224;28;20027;-73
2023/08/17 06:24:12;;;;;;;9.25;8.35;;;32.60;99.90;;;;;;5090093;28;20047;-73
2023/08/17 06:27:16;;;;;;;13.15;9.40;;;32.70;99.90;;;;;;5092918;28;20043;-73
2023/08/17 06:30:20;;;;;;;11.10;9.10;;;32.40;99.90;;;;;;5084197;28;20442;-73
2023/08/17 06:33:24;;;;;;;11.70;8.95;;;31.60;99.90;;;;;;5086018;28;20317;-73
2023/08/17 06:36:34;;;;;;;20.00;8.88;;;31.50;99.90;;;;;;5093042;28;20035;-73
2023/08/17 06:39:38;;;;;;;12.03;8.07;;;31.70;99.90;;;;;;5093388;28;20502;-72
2023/08/17 06:42:42;;;;;;;9.95;7.65;;;32.40;99.90;;;;;;5092564;28;20039;-73
2023/08/17 06:45:46;;;;;;;9.45;7.28;;;32.70;99.90;;;;;;5092576;28;20043;-73
2023/08/17 06:48:50;;;;;;;10.60;7.38;;;33.30;99.70;;;;;;5098834;28;20043;-73
2023/08/17 06:51:54;;;;;;;8.10;6.97;;;32.50;99.90;;;;;;5093200;28;20039;-72
2023/08/17 06:54:58;;;;;;;13.02;6.32;;;33.10;99.00;;;;;;5091449;28;20035;-72
2023/08/17 06:58:02;;;;;;;10.15;6.43;;;33.30;98.90;;;;;;5088289;28;20498;-72
2023/08/17 07:01:05;;;;;;;20.73;8.05;;;34.40;97.80;;;;;;5092145;28;20035;-72
2023/08/17 07:04:09;;;;;;;7.38;6.68;;;34.60;97.70;;;;;;5091934;28;20039;-72
2023/08/17 07:07:14;;;;;;;10.80;6.57;;;34.10;97.70;;;;;;5093413;28;20047;-73
2023/08/17 07:10:17;;;;;;;6.82;5.90;;;35.20;96.40;;;;;;5093179;28;20055;-72
2023/08/17 07:13:21;;;;;;;9.30;5.68;;;36.10;95.40;;;;;;5089918;28;20035;-73
2023/08/17 07:16:25;;;;;;;6.88;5.82;;;36.70;93.80;;;;;;5084684;28;20386;-72
2023/08/17 07:19:29;;;;;;;11.63;6.10;;;36.80;93.60;;;;;;5090667;28;20039;-73
2023/08/17 07:22:33;;;;;;;6.30;5.65;;;34.90;93.40;;;;;;5092970;28;20059;-73
2023/08/17 07:25:37;;;;;;;9.20;5.82;;;35.90;94.40;;;;;;5092625;28;20042;-72
2023/08/17 07:28:41;;;;;;;7.03;5.75;;;36.80;92.80;;;;;;5095725;28;20039;-73
2023/08/17 07:31:45;;;;;;;6.22;5.60;;;37.30;92.10;;;;;;5091536;28;20043;-72
2023/08/17 07:34:49;;;;;;;6.63;5.72;;;36.70;91.60;;;;;;5102111;28;20035;-72
2023/08/17 07:37:53;;;;;;;9.40;5.85;;;37.40;91.70;;;;;;5091449;28;20035;-72
2023/08/17 07:40:57;;;;;;;6.93;5.07;;;37.00;91.50;;;;;;5086355;28;20043;-72
2023/08/17 07:44:01;;;;;;;9.30;5.78;;;37.60;91.40;;;;;;5091989;28;20035;-72
2023/08/17 07:47:05;;;;;;;5.22;4.72;;;38.40;90.80;;;;;;5072499;28;20059;-73
2023/08/17 07:50:09;;;;;;;7.82;5.22;;;38.60;90.70;;;;;;5072347;28;20048;-72
2023/08/17 07:53:13;;;;;;;9.35;4.90;;;39.90;90.00;;;;;;5089600;28;20059;-72
2023/08/17 07:56:17;;;;;;;6.63;4.68;;;39.10;89.80;;;;;;5085633;28;20047;-72
2023/08/17 07:59:21;;;;;;;6.80;4.80;;;39.50;89.10;;;;;;5089081;28;20047;-73
2023/08/17 08:02:25;;;;;;;8.40;4.63;;;39.10;89.80;;;;;;5089884;28;20043;-73
2023/08/17 08:05:29;;;;;;;5.40;4.90;;;38.30;89.70;;;;;;5087849;28;20043;-72
2023/08/17 08:08:33;;;;;;;8.00;5.45;;;36.10;90.80;;;;;;5086067;28;20039;-73
2023/08/17 08:11:39;;;;;;;6.32;5.15;;;36.30;91.70;;;;;;5091251;28;20043;-74
2023/08/17 08:14:43;;;;;;;6.90;5.50;;;36.30;92.20;;;;;;5091523;28;20059;-74
2023/08/17 08:17:47;;;;;;;8.73;5.47;;;37.10;91.30;;;;;;5091213;28;20039;-73
2023/08/17 08:20:52;;;;;;;5.55;4.95;;;37.70;90.60;;;;;;5090477;28;20035;-74
2023/08/17 08:23:56;;;;;;;6.88;5.72;;;38.80;89.40;;;;;;5073943;28;20035;-75
2023/08/17 08:27:03;;;;;;;10.18;6.20;;;39.60;88.10;;;;;;5090156;28;20047;-75
2023/08/17 08:30:07;;;;;;;6.90;4.80;;;39.60;87.40;;;;;;5091502;28;20047;-74
2023/08/17 08:33:11;;;;;;;8.00;5.65;;;41.40;86.40;;;;;;5090512;28;20489;-74
2023/08/17 08:36:15;;;;;;;6.75;5.53;;;40.50;85.80;;;;;;5089845;28;20047;-73
2023/08/17 08:39:19;;;;;;;7.43;5.57;;;40.50;85.30;;;;;;5092309;28;20047;-74
2023/08/17 08:42:25;;;;;;;6.45;5.53;;;39.70;85.80;;;;;;5090618;28;20054;-75
2023/08/17 08:45:30;;;;;;;7.18;5.25;;;41.10;84.50;;;;;;5080120;28;20035;-75
2023/08/17 08:48:37;;;;;;;7.05;4.53;;;42.30;82.70;;;;;;5076302;28;20063;-71
2023/08/17 08:51:45;;;;;;;7.70;5.13;;;43.30;80.80;;;;;;5079232;28;20498;-73
2023/08/17 08:54:52;;;;;;;5.93;4.25;;;42.30;80.40;;;;;;5084635;28;20043;-74
2023/08/17 08:57:57;;;;;;;6.15;4.80;;;42.00;82.00;;;;;;5087691;28;20051;-75
2023/08/17 09:01:03;;;;;;;6.95;4.40;;;40.50;81.80;;;;;;5074027;28;20481;-74
2023/08/17 09:04:07;;;;;;;8.23;4.80;;;42.90;79.80;;;;;;5073410;28;20039;-73
2023/08/17 09:07:16;;;;;;;7.40;4.75;;;45.20;77.60;;;;;;5087924;28;20047;-75
2023/08/17 09:10:23;;;;;;;6.60;4.57;;;45.10;74.80;;;;;;5090277;28;20485;-74
2023/08/17 09:13:27;;;;;;;9.48;4.45;;;44.00;75.20;;;;;;5086376;28;20054;-75
2023/08/17 09:16:31;;;;;;;9.18;5.35;;;45.80;74.20;;;;;;5089723;28;20043;-75
2023/08/17 09:19:35;;;;;;;7.35;4.88;;;45.10;72.90;;;;;;5085092;28;20076;-74
2023/08/17 09:22:43;;;;;;;7.03;4.38;;;43.00;74.30;;;;;;5089323;28;20041;-75
2023/08/17 09:25:48;;;;;;;5.47;3.97;;;44.80;73.70;;;;;;5085754;28;20039;-77
2023/08/17 09:28:56;;;;;;;5.85;3.97;;;46.30;71.40;;;;;;5076405;28;20047;-76
2023/08/17 09:32:05;;;;;;;9.90;4.43;;;46.90;69.50;;;;;;5084232;28;20027;-77
2023/08/17 09:35:09;;;;;;;4.40;4.00;;;48.00;68.50;;;;;;5080475;28;20049;-77
2023/08/17 09:38:14;;;;;;;7.20;4.10;;;48.90;67.00;;;;;;5090122;28;20043;-77
2023/08/17 09:41:19;;;;;;;5.10;4.00;;;50.00;65.60;;;;;;5084371;28;20051;-73
2023/08/17 09:44:23;;;;;;;7.88;4.57;;;46.40;63.90;;;;;;5081575;28;20043;-75
2023/08/17 09:47:27;;;;;;;6.38;3.78;;;43.60;68.80;;;;;;5084313;28;20051;-74
2023/08/17 09:50:33;;;;;;;4.15;3.75;;;45.70;67.70;;;;;;5089351;28;20035;-75
2023/08/17 09:53:37;;;;;;;5.35;3.47;;;47.70;66.30;;;;;;5082525;28;20051;-74
2023/08/17 09:56:42;;;;;;;6.30;3.60;;;48.80;64.70;;;;;;5089889;28;20066;-72
2023/08/17 09:59:46;;;;;;;5.78;3.08;;;49.20;63.90;;;;;;5083268;28;20055;-73
2023/08/17 10:02:53;;;;;;;5.97;4.30;;;49.20;63.60;;;;;;5088672;28;20485;-73
2023/08/17 10:06:10;;;;;;;6.78;3.97;;;43.60;66.10;;;;;;5085436;28;20107;-74
2023/08/17 10:09:17;;;;;;;6.63;4.32;;;45.00;66.20;;;;;;5087500;28;20047;-74
2023/08/17 10:12:26;;;;;;;5.28;3.40;;;47.10;65.10;;;;;;5089935;28;20047;-74
2023/08/17 10:15:36;;;;;;;4.88;3.33;;;49.20;63.40;;;;;;5088138;28;20039;-70
2023/08/17 10:19:26;;;;;;;5.55;3.47;;;51.00;61.60;;;;;;5085967;28;20055;-74
2023/08/17 10:22:51;;;;;;;4.65;3.72;;;48.30;61.00;;;;;;5065236;28;20512;-73
2023/08/17 10:25:55;;;;;;;8.85;3.45;;;46.30;62.90;;;;;;5086291;28;20059;-74
2023/08/17 10:29:02;;;;;;;4.68;3.97;;;43.40;65.30;;;;;;5087423;28;20044;-73
2023/08/17 10:32:07;;;;;;;5.72;3.72;;;41.80;66.50;;;;;;5084220;28;20058;-73
2023/08/17 10:35:15;;;;;;;4.25;3.85;;;45.30;64.70;;;;;;5081935;28;20055;-71
2023/08/17 10:38:19;;;;;;;7.50;4.00;;;43.70;63.40;;;;;;5085237;28;20474;-75
2023/08/17 10:41:23;;;;;;;4.63;3.47;;;44.90;64.60;;;;;;5079274;28;20055;-75
2023/08/17 10:44:47;;;;;;;3.55;2.95;;;45.80;62.20;;;;;;5081853;28;20054;-71
2023/08/17 10:48:20;;;;;;;4.53;3.35;;;48.10;62.30;;;;;;5084631;28;20388;-72
2023/08/17 10:51:27;;;;;;;3.13;2.78;;;49.30;60.50;;;;;;5086238;28;20051;-72
2023/08/17 10:54:38;;;;;;;4.18;3.00;;;50.90;59.40;;;;;;5092635;28;20035;-74
2023/08/17 10:57:43;;;;;;;5.60;3.10;;;45.80;60.60;;;;;;5076869;28;20051;-75
2023/08/17 11:00:53;;;;;;;7.43;2.85;;;47.30;60.20;;;;;;5090751;28;20047;-75
2023/08/17 11:04:18;;;;;;;3.03;2.40;;;49.50;59.20;;;;;;5090079;28;20055;-75
2023/08/17 11:07:23;;;;;;;4.22;3.00;;;48.50;56.90;;;;;;5090426;28;20043;-75
2023/08/17 11:10:29;;;;;;;3.42;3.00;;;48.90;58.60;;;;;;5087564;28;20047;-74
2023/08/17 11:13:36;;;;;;;4.90;3.13;;;49.50;58.40;;;;;;5086955;28;20054;-75
2023/08/17 11:16:41;;;;;;;3.88;2.97;;;48.40;58.80;;;;;;5080936;28;20043;-74
2023/08/17 11:19:44;;;;;;;5.97;2.58;;;48.70;58.80;;;;;;5075695;28;20498;-76
2023/08/17 11:22:51;;;;;;;6.88;2.38;;;50.60;57.60;;;;;;5090155;28;20046;-75
2023/08/17 11:25:55;;;;;;;3.83;2.40;;;51.40;55.20;;;;;;5088562;28;20031;-74
2023/08/17 11:29:00;;;;;;;2.38;1.80;;;51.50;55.90;;;;;;5089209;28;20041;-74
2023/08/17 11:32:05;;;;;;;4.00;2.63;;;47.70;54.50;;;;;;5081052;28;20043;-74
2023/08/17 11:35:09;;;;;;;2.70;2.45;;;49.30;55.90;;;;;;5071165;28;20494;-74
2023/08/17 11:38:15;;;;;;;3.42;1.50;;;49.80;54.60;;;;;;5084947;28;20043;-75
2023/08/17 11:41:27;;;;;;;2.05;1.40;;;49.60;53.90;;;;;;5090760;28;20383;-76
2023/08/17 11:44:34;;;;;;;1.55;1.25;;;51.10;51.70;;;;;;5090304;28;20043;-74
2023/08/17 11:47:43;;;;;;;3.72;1.17;;;52.30;50.20;;;;;;5085962;28;20051;-75
2023/08/17 11:50:48;;;;;;;2.53;1.15;;;51.50;50.20;;;;;;5092246;28;20046;-75
2023/08/17 11:53:52;;;;;;;2.17;1.40;;;51.90;49.90;;;;;;5084228;28;20050;-74
2023/08/17 11:57:03;;;;;;;1.50;1.30;;;52.40;49.70;;;;;;5082538;28;20043;-75
2023/08/17 12:00:12;;;;;;;3.22;1.35;;;51.70;49.30;;;;;;5088617;28;20043;-72
2023/08/17 12:03:20;;;;;;;6.03;1.55;;;51.90;49.80;;;;;;5087378;28;20031;-73
2023/08/17 12:06:24;;;;;;;3.50;1.60;;;51.10;50.10;;;;;;5074840;28;20490;-73
2023/08/17 12:09:28;;;;;;;3.90;1.38;;;51.50;49.60;;;;;;5094022;28;20047;-72
2023/08/17 12:12:37;;;;;;;2.13;1.48;;;52.50;49.70;;;;;;5084758;28;20039;-73
2023/08/17 12:15:44;;;;;;;2.10;1.70;;;53.30;49.40;;;;;;5082805;28;20090;-73
2023/08/17 12:18:49;;;;;;;1.75;1.30;;;53.70;48.50;;;;;;5087197;28;20047;-72
2023/08/17 12:21:53;;;;;;;5.93;1.55;;;53.90;48.50;;;;;;5091029;28;20051;-73
2023/08/17 12:24:58;;;;;;;3.92;1.38;;;52.30;48.50;;;;;;5084775;28;20383;-75
2023/08/17 12:28:02;;;;;;;1.77;1.67;;;49.50;47.80;;;;;;5089728;28;20047;-73
2023/08/17 12:31:08;;;;;;;2.38;1.80;;;46.10;50.40;;;;;;5085378;28;20043;-72
2023/08/17 12:34:12;;;;;;;2.70;1.50;;;47.80;50.50;;;;;;5086005;28;20039;-74
2023/08/17 12:37:23;;;;;;;3.55;2.05;;;48.70;49.40;;;;;;5090396;28;20359;-74
2023/08/17 12:40:26;;;;;;;6.22;2.20;;;44.10;53.60;;;;;;5092254;28;20043;-73
2023/08/17 12:43:30;;;;;;;5.00;2.20;;;44.70;53.20;;;;;;5091610;28;20046;-73
2023/08/17 12:46:35;;;;;;;4.95;2.70;;;45.50;53.60;;;;;;5081453;28;20043;-73
2023/08/17 12:49:39;;;;;;;6.18;2.28;;;47.20;54.30;;;;;;5086001;28;20043;-74
2023/08/17 12:52:43;;;;;;;3.70;2.70;;;48.10;54.10;;;;;;5085000;28;20062;-72
2023/08/17 12:55:47;;;;;;;6.53;2.75;;;48.60;53.60;;;;;;5086835;28;20066;-74
2023/08/17 12:58:51;;;;;;;4.10;2.88;;;48.50;53.40;;;;;;5087455;28;20391;-74
2023/08/17 13:01:56;;;;;;;5.38;2.67;;;48.80;52.60;;;;;;5084691;28;20055;-75
2023/08/17 13:05:00;;;;;;;3.97;2.40;;;48.60;52.70;;;;;;5091419;28;20118;-74
2023/08/17 13:08:04;;;;;;;4.00;2.15;;;48.90;52.40;;;;;;5091395;28;20043;-72
2023/08/17 13:11:11;;;;;;;5.03;2.60;;;48.30;51.80;;;;;;5090293;28;20035;-73
2023/08/17 13:14:16;;;;;;;3.15;2.47;;;46.10;52.40;;;;;;5091627;28;20062;-73
2023/08/17 13:17:20;;;;;;;3.28;2.92;;;44.60;53.60;;;;;;5090923;28;20047;-74
2023/08/17 13:20:26;;;;;;;5.40;2.75;;;42.40;55.10;;;;;;5091314;28;20391;-74
2023/08/17 13:23:30;;;;;;;3.85;2.85;;;41.80;55.40;;;;;;5090991;28;20039;-71
2023/08/17 13:26:34;;;;;;;6.15;3.08;;;42.90;56.50;;;;;;5091523;28;20498;-73
2023/08/17 13:29:39;;;;;;;6.25;3.25;;;43.60;56.40;;;;;;5090741;28;20039;-74
2023/08/17 13:32:43;;;;;;;4.10;3.03;;;44.00;55.90;;;;;;5091097;28;20059;-75
2023/08/17 13:35:51;;;;;;;4.03;3.03;;;44.20;55.70;;;;;;5091227;28;20419;-74
2023/08/17 13:38:57;;;;;;;6.80;3.30;;;44.40;55.40;;;;;;5090669;28;20043;-73
2023/08/17 13:42:01;;;;;;;4.07;3.22;;;45.00;55.10;;;;;;5090845;28;20047;-73
2023/08/17 13:45:06;;;;;;;6.60;3.22;;;44.00;55.20;;;;;;5090916;28;20505;-72
2023/08/17 13:48:09;;;;;;;4.95;3.28;;;43.80;54.80;;;;;;5090867;28;20506;-73
2023/08/17 13:51:13;;;;;;;6.18;3.20;;;43.00;55.10;;;;;;5090921;28;20059;-74
2023/08/17 13:54:17;;;;;;;4.55;3.13;;;41.80;56.90;;;;;;5078465;28;20514;-72
2023/08/17 13:57:21;;;;;;;4.28;3.50;;;41.70;56.00;;;;;;5090775;28;20048;-71
2023/08/17 14:00:26;;;;;;;4.00;3.60;;;41.70;57.10;;;;;;5090817;28;20039;-74
2023/08/17 14:03:30;;;;;;;5.57;3.53;;;41.20;57.10;;;;;;5090410;28;20387;-72
2023/08/17 14:06:34;;;;;;;5.20;3.88;;;40.60;57.80;;;;;;5090853;28;20490;-75
2023/08/17 14:09:38;;;;;;;4.45;3.22;;;40.10;58.90;;;;;;5090762;28;20051;-73
2023/08/17 14:12:42;;;;;;;5.28;3.80;;;39.90;58.80;;;;;;5090643;28;20332;-76
2023/08/17 14:15:46;;;;;;;5.30;3.92;;;39.50;59.00;;;;;;5090389;28;20051;-75
2023/08/17 14:18:50;;;;;;;6.68;4.15;;;39.00;58.80;;;;;;5090529;28;20055;-72
2023/08/17 14:21:54;;;;;;;6.88;3.58;;;39.10;59.60;;;;;;5090553;28;20505;-74
2023/08/17 14:24:59;;;;;;;8.38;4.47;;;39.60;60.40;;;;;;5082072;28;20047;-71
2023/08/17 14:28:05;;;;;;;19.40;5.53;;;39.60;62.90;;;;;;5094319;28;20109;-71
2023/08/17 14:31:09;;;;;;;6.70;5.22;;;39.50;64.10;;;;;;5094338;28;20051;-71
2023/08/17 14:34:15;;;;;;;12.02;4.60;;;39.20;64.40;;;;;;5094558;28;20047;-72
2023/08/17 14:37:19;;;;;;;5.80;4.40;;;39.10;64.10;;;;;;5094102;28;20039;-74
2023/08/17 14:40:23;;;;;;;8.60;4.55;;;38.90;64.00;;;;;;5094438;28;20051;-74
2023/08/17 14:43:30;;;;;;;8.18;4.97;;;38.30;64.30;;;;;;5093768;28;20031;-74
2023/08/17 14:46:42;;;;;;;6.55;5.10;;;37.50;65.80;;;;;;5094163;28;20049;-75
2023/08/17 14:49:46;;;;;;;7.78;5.70;;;36.80;68.00;;;;;;5093873;28;20058;-75
2023/08/17 14:52:53;;;;;;;10.57;5.95;;;36.20;70.20;;;;;;5093767;28;20390;-74
2023/08/17 14:55:57;;;;;;;8.23;5.80;;;35.60;71.80;;;;;;5093980;28;20510;-74
2023/08/17 14:59:02;;;;;;;12.95;6.82;;;35.30;72.80;;;;;;5093620;28;20047;-74
2023/08/17 15:02:10;;;;;;;6.93;6.00;;;35.10;73.80;;;;;;5093694;28;20422;-74
2023/08/17 15:05:14;;;;;;;12.25;6.57;;;34.90;74.10;;;;;;5093753;28;20043;-74
2023/08/17 15:08:19;;;;;;;6.68;5.78;;;34.70;74.10;;;;;;5093797;28;20055;-74
2023/08/17 15:11:22;;;;;;;7.90;5.90;;;34.40;74.90;;;;;;5093291;28;20062;-74
2023/08/17 15:14:26;;;;;;;6.55;5.55;;;34.20;75.70;;;;;;5093682;28;20051;-75
2023/08/17 15:17:30;;;;;;;7.32;5.90;;;34.00;76.80;;;;;;5093224;28;20051;-74
2023/08/17 15:20:34;;;;;;;10.68;6.18;;;33.80;76.90;;;;;;5093447;28;20039;-75
2023/08/17 15:23:38;;;;;;;11.15;5.38;;;33.50;77.30;;;;;;5093584;28;20086;-74
2023/08/17 15:26:42;;;;;;;11.05;4.90;;;33.40;76.00;;;;;;5093386;28;20039;-75
2023/08/17 15:29:46;;;;;;;9.00;4.72;;;33.10;73.40;;;;;;5080829;28;20453;-74
2023/08/17 15:32:50;;;;;;;16.75;4.88;;;32.90;72.80;;;;;;5092340;28;20501;-75
2023/08/17 15:35:55;;;;;;;9.63;4.65;;;32.70;72.80;;;;;;5093152;28;20043;-75
2023/08/17 15:38:58;;;;;;;11.32;4.45;;;32.60;72.30;;;;;;5093102;28;20118;-75
2023/08/17 15:42:02;;;;;;;11.13;4.68;;;32.50;72.20;;;;;;5092783;28;20039;-75
2023/08/17 15:45:07;;;;;;;10.40;4.00;;;32.40;70.80;;;;;;5092947;28;20039;-75
2023/08/17 15:48:12;;;;;;;11.48;3.95;;;32.40;70.90;;;;;;5092986;28;20395;-75
2023/08/17 15:51:16;;;;;;;13.30;4.55;;;32.40;71.40;;;;;;5092682;28;20043;-74
2023/08/17 15:54:20;;;;;;;13.23;4.57;;;32.30;72.00;;;;;;5092889;28;20047;-75
2023/08/17 15:57:24;;;;;;;10.25;3.72;;;32.40;71.70;;;;;;5092870;28;20059;-74
2023/08/17 16:00:28;;;;;;;9.25;3.75;;;32.40;71.30;;;;;;5092573;28;20043;-75
2023/08/17 16:03:32;;;;;;;11.85;3.75;;;32.60;71.00;;;;;;5092558;28;20042;-75
2023/08/17 16:06:37;;;;;;;13.52;3.60;;;33.00;70.90;;;;;;5092708;28;20039;-75
2023/08/17 16:09:41;;;;;;;10.32;3.50;;;33.40;70.70;;;;;;5092476;28;20055;-75
2023/08/17 16:12:45;;;;;;;16.55;4.10;;;33.80;70.70;;;;;;5092321;28;20070;-75
2023/08/17 16:15:49;;;;;;;11.40;4.25;;;34.20;70.70;;;;;;5091360;28;20059;-74
2023/08/17 16:18:53;;;;;;;11.40;3.95;;;34.60;71.20;;;;;;5087672;28;20031;-74
2023/08/17 16:21:57;;;;;;;10.02;4.45;;;35.10;70.90;;;;;;5091745;28;20379;-75
2023/08/17 16:25:01;;;;;;;7.47;4.07;;;35.30;71.00;;;;;;5088952;28;20039;-74
2023/08/17 16:28:05;;;;;;;7.60;4.05;;;35.50;70.70;;;;;;5078852;28;20039;-75
2023/08/17 16:31:09;;;;;;;11.48;3.97;;;35.50;70.90;;;;;;5091543;28;20043;-73